sensor_id;sensor_type;location;lat;lon;timestamp;pressure;altitude;pressure_sealevel;temperature;humidity
74633;BME280;63139;52.018;8.552;2023-03-14T00:02:26;62328.09;;;-141.90;100.00
74633;BME280;63139;52.018;8.552;2023-03-14T00:04:54;62328.09;;;-141.90;100.00
74633;BME280;63139;52.018;8.552;2023-03-14T00:07:24;62328.09;;;-141.90;100.00
74633;BME280;63139;52.018;8.552;2023-03-14T00:09:52;62328.09;;;-141.90;100.00
74633;BME280;63139;52.018;8.552;2023-03-14T00:12:19;62328.09;;;-141.90;100.00
74633;BME280;63139;52.018;8.552;2023-03-14T00:14:47;62328.09;;;-141.90;100.00
74633;BME280;63139;52.018;8.552;2023-03-14T00:17:15;62328.09;;;-141.90;100.00
74633;BME280;63139;52.018;8.552;2023-03-14T00:19:42;62328.09;;;-141.90;100.00
74633;BME280;63139;52.018;8.552;2023-03-14T00:22:10;62328.09;;;-141.90;100.00
74633;BME280;63139;52.018;8.552;2023-03-14T00:24:39;62328.09;;;-141.90;100.00
74633;BME280;63139;52.018;8.552;2023-03-14T00:27:07;62328.09;;;-141.90;100.00
74633;BME280;63139;52.018;8.552;2023-03-14T00:29:35;62328.09;;;-141.90;100.00
74633;BME280;63139;52.018;8.552;2023-03-14T00:32:03;62328.09;;;-141.90;100.00
74633;BME280;63139;52.018;8.552;2023-03-14T00:34:32;62328.09;;;-141.90;100.00
74633;BME280;63139;52.018;8.552;2023-03-14T00:37:00;62328.09;;;-141.90;100.00
74633;BME280;63139;52.018;8.552;2023-03-14T00:39:28;62328.09;;;-141.90;100.00
74633;BME280;63139;52.018;8.552;2023-03-14T00:41:57;62328.09;;;-141.90;100.00
74633;BME280;63139;52.018;8.552;2023-03-14T00:44:25;62328.09;;;-141.90;100.00
74633;BME280;63139;52.018;8.552;2023-03-14T00:46:53;62328.09;;;-141.90;100.00
74633;BME280;63139;52.018;8.552;2023-03-14T00:49:21;62328.09;;;-141.90;100.00
74633;BME280;63139;52.018;8.552;2023-03-14T00:51:50;62328.09;;;-141.90;100.00
74633;BME280;63139;52.018;8.552;2023-03-14T00:54:18;62328.09;;;-141.90;100.00
74633;BME280;63139;52.018;8.552;2023-03-14T00:56:46;62328.09;;;-141.90;100.00
74633;BME280;63139;52.018;8.552;2023-03-14T00:59:15;62328.09;;;-141.90;100.00
74633;BME280;63139;52.018;8.552;2023-03-14T01:01:43;62328.09;;;-141.90;100.00
74633;BME280;63139;52.018;8.552;2023-03-14T01:04:11;62328.09;;;-141.90;100.00
74633;BME280;63139;52.018;8.552;2023-03-14T01:06:39;62328.09;;;-141.90;100.00
74633;BME280;63139;52.018;8.552;2023-03-14T01:09:09;62328.09;;;-141.90;100.00
74633;BME280;63139;52.018;8.552;2023-03-14T01:11:37;62328.09;;;-141.90;100.00
74633;BME280;63139;52.018;8.552;2023-03-14T01:14:05;62328.09;;;-141.90;100.00
74633;BME280;63139;52.018;8.552;2023-03-14T01:16:35;62328.09;;;-141.90;100.00
74633;BME280;63139;52.018;8.552;2023-03-14T01:19:03;62328.09;;;-141.90;100.00
74633;BME280;63139;52.018;8.552;2023-03-14T01:21:33;62328.09;;;-141.90;100.00
74633;BME280;63139;52.018;8.552;2023-03-14T01:24:03;62328.09;;;-141.90;100.00
74633;BME280;63139;52.018;8.552;2023-03-14T01:26:34;62328.09;;;-141.90;100.00
74633;BME280;63139;52.018;8.552;2023-03-14T01:29:04;62328.09;;;-141.90;100.00
74633;BME280;63139;52.018;8.552;2023-03-14T01:31:36;62328.09;;;-141.90;100.00
74633;BME280;63139;52.018;8.552;2023-03-14T01:34:04;62328.09;;;-141.90;100.00
74633;BME280;63139;52.018;8.552;2023-03-14T01:36:32;62328.09;;;-141.90;100.00
74633;BME280;63139;52.018;8.552;2023-03-14T01:39:00;62328.09;;;-141.90;100.00
74633;BME280;63139;52.018;8.552;2023-03-14T01:41:29;62328.09;;;-141.90;100.00
74633;BME280;63139;52.018;8.552;2023-03-14T01:43:58;62328.09;;;-141.90;100.00
74633;BME280;63139;52.018;8.552;2023-03-14T01:46:30;62328.09;;;-141.90;100.00
74633;BME280;63139;52.018;8.552;2023-03-14T01:49:09;62328.09;;;-141.90;100.00
74633;BME280;63139;52.018;8.552;2023-03-14T01:51:44;62328.09;;;-141.90;100.00
74633;BME280;63139;52.018;8.552;2023-03-14T01:54:17;62328.09;;;-141.90;100.00
74633;BME280;63139;52.018;8.552;2023-03-14T01:56:51;62328.09;;;-141.90;100.00
74633;BME280;63139;52.018;8.552;2023-03-14T01:59:21;62328.09;;;-141.90;100.00
74633;BME280;63139;52.018;8.552;2023-03-14T02:01:50;62328.09;;;-141.90;100.00
74633;BME280;63139;52.018;8.552;2023-03-14T02:04:20;62328.09;;;-141.90;100.00
74633;BME280;63139;52.018;8.552;2023-03-14T02:06:51;62328.09;;;-141.90;100.00
74633;BME280;63139;52.018;8.552;2023-03-14T02:09:24;62328.09;;;-141.90;100.00
74633;BME280;63139;52.018;8.552;2023-03-14T02:11:52;62328.09;;;-141.90;100.00
74633;BME280;63139;52.018;8.552;2023-03-14T02:14:43;62328.09;;;-141.90;100.00
74633;BME280;63139;52.018;8.552;2023-03-14T02:17:28;62328.09;;;-141.90;100.00
74633;BME280;63139;52.018;8.552;2023-03-14T02:20:28;62328.09;;;-141.90;100.00
74633;BME280;63139;52.018;8.552;2023-03-14T02:22:59;62328.09;;;-141.90;100.00
74633;BME280;63139;52.018;8.552;2023-03-14T02:25:37;62328.09;;;-141.90;100.00
74633;BME280;63139;52.018;8.552;2023-03-14T02:28:08;62328.09;;;-141.90;100.00
74633;BME280;63139;52.018;8.552;2023-03-14T02:30:37;62328.09;;;-141.90;100.00
74633;BME280;63139;52.018;8.552;2023-03-14T02:33:08;62328.09;;;-141.90;100.00
74633;BME280;63139;52.018;8.552;2023-03-14T02:35:41;62328.09;;;-141.90;100.00
74633;BME280;63139;52.018;8.552;2023-03-14T02:38:15;62328.09;;;-141.90;100.00
74633;BME280;63139;52.018;8.552;2023-03-14T02:40:46;62328.09;;;-141.90;100.00
74633;BME280;63139;52.018;8.552;2023-03-14T02:43:16;62328.09;;;-141.90;100.00
74633;BME280;63139;52.018;8.552;2023-03-14T02:45:50;62328.09;;;-141.90;100.00
74633;BME280;63139;52.018;8.552;2023-03-14T02:48:23;62328.09;;;-141.90;100.00
74633;BME280;63139;52.018;8.552;2023-03-14T02:50:54;62328.09;;;-141.90;100.00
74633;BME280;63139;52.018;8.552;2023-03-14T02:53:25;62328.09;;;-141.90;100.00
74633;BME280;63139;52.018;8.552;2023-03-14T02:55:56;62328.09;;;-141.90;100.00
74633;BME280;63139;52.018;8.552;2023-03-14T02:58:26;62328.09;;;-141.90;100.00
74633;BME280;63139;52.018;8.552;2023-03-14T03:01:01;62328.09;;;-141.90;100.00
74633;BME280;63139;52.018;8.552;2023-03-14T03:03:29;62328.09;;;-141.90;100.00
74633;BME280;63139;52.018;8.552;2023-03-14T03:05:57;62328.09;;;-141.90;100.00
74633;BME280;63139;52.018;8.552;2023-03-14T03:08:26;62328.09;;;-141.90;100.00
74633;BME280;63139;52.018;8.552;2023-03-14T03:10:56;62328.09;;;-141.90;100.00
74633;BME280;63139;52.018;8.552;2023-03-14T03:13:28;62328.09;;;-141.90;100.00
74633;BME280;63139;52.018;8.552;2023-03-14T03:15:57;62328.09;;;-141.90;100.00
74633;BME280;63139;52.018;8.552;2023-03-14T03:18:25;62328.09;;;-141.90;100.00
74633;BME280;63139;52.018;8.552;2023-03-14T03:20:53;62328.09;;;-141.90;100.00
74633;BME280;63139;52.018;8.552;2023-03-14T03:23:21;62328.09;;;-141.90;100.00
74633;BME280;63139;52.018;8.552;2023-03-14T03:25:50;62328.09;;;-141.90;100.00
74633;BME280;63139;52.018;8.552;2023-03-14T03:28:18;62328.09;;;-141.90;100.00
74633;BME280;63139;52.018;8.552;2023-03-14T03:30:48;62328.09;;;-141.90;100.00
74633;BME280;63139;52.018;8.552;2023-03-14T03:33:16;62328.09;;;-141.90;100.00
74633;BME280;63139;52.018;8.552;2023-03-14T03:35:45;62328.09;;;-141.90;100.00
74633;BME280;63139;52.018;8.552;2023-03-14T03:38:17;62328.09;;;-141.90;100.00
74633;BME280;63139;52.018;8.552;2023-03-14T03:40:48;62328.09;;;-141.90;100.00
74633;BME280;63139;52.018;8.552;2023-03-14T03:43:16;62328.09;;;-141.90;100.00
74633;BME280;63139;52.018;8.552;2023-03-14T03:45:48;62328.09;;;-141.90;100.00
74633;BME280;63139;52.018;8.552;2023-03-14T03:48:16;62328.09;;;-141.90;100.00
74633;BME280;63139;52.018;8.552;2023-03-14T03:50:44;62328.09;;;-141.90;100.00
74633;BME280;63139;52.018;8.552;2023-03-14T03:53:14;62328.09;;;-141.90;100.00
74633;BME280;63139;52.018;8.552;2023-03-14T03:55:58;62328.09;;;-141.90;100.00
74633;BME280;63139;52.018;8.552;2023-03-14T03:58:26;62328.09;;;-141.90;100.00
74633;BME280;63139;52.018;8.552;2023-03-14T04:00:56;62328.09;;;-141.90;100.00
74633;BME280;63139;52.018;8.552;2023-03-14T04:03:24;62328.09;;;-141.90;100.00
74633;BME280;63139;52.018;8.552;2023-03-14T04:05:58;62328.09;;;-141.90;100.00
74633;BME280;63139;52.018;8.552;2023-03-14T04:08:26;62328.09;;;-141.90;100.00
74633;BME280;63139;52.018;8.552;2023-03-14T04:10:55;62328.09;;;-141.90;100.00
74633;BME280;63139;52.018;8.552;2023-03-14T04:13:38;62328.09;;;-141.90;100.00
74633;BME280;63139;52.018;8.552;2023-03-14T04:16:13;62328.09;;;-141.90;100.00
74633;BME280;63139;52.018;8.552;2023-03-14T04:18:42;62328.09;;;-141.90;100.00
74633;BME280;63139;52.018;8.552;2023-03-14T04:21:10;62328.09;;;-141.90;100.00
74633;BME280;63139;52.018;8.552;2023-03-14T04:23:51;62328.09;;;-141.90;100.00
74633;BME280;63139;52.018;8.552;2023-03-14T04:26:19;62328.09;;;-141.90;100.00
74633;BME280;63139;52.018;8.552;2023-03-14T04:28:47;62328.09;;;-141.90;100.00
74633;BME280;63139;52.018;8.552;2023-03-14T04:31:18;62328.09;;;-141.90;100.00
74633;BME280;63139;52.018;8.552;2023-03-14T04:33:47;62328.09;;;-141.90;100.00
74633;BME280;63139;52.018;8.552;2023-03-14T04:36:19;62328.09;;;-141.90;100.00
74633;BME280;63139;52.018;8.552;2023-03-14T04:38:47;62328.09;;;-141.90;100.00
74633;BME280;63139;52.018;8.552;2023-03-14T04:41:18;62328.09;;;-141.90;100.00
74633;BME280;63139;52.018;8.552;2023-03-14T04:43:46;62328.09;;;-141.90;100.00
74633;BME280;63139;52.018;8.552;2023-03-14T04:46:14;62328.09;;;-141.90;100.00
74633;BME280;63139;52.018;8.552;2023-03-14T04:48:44;62328.09;;;-141.90;100.00
74633;BME280;63139;52.018;8.552;2023-03-14T04:51:12;62328.09;;;-141.90;100.00
74633;BME280;63139;52.018;8.552;2023-03-14T04:53:40;62328.09;;;-141.90;100.00
74633;BME280;63139;52.018;8.552;2023-03-14T04:56:10;62328.09;;;-141.90;100.00
74633;BME280;63139;52.018;8.552;2023-03-14T04:58:41;62328.09;;;-141.90;100.00
74633;BME280;63139;52.018;8.552;2023-03-14T05:01:11;62328.09;;;-141.90;100.00
74633;BME280;63139;52.018;8.552;2023-03-14T05:03:58;62328.09;;;-141.90;100.00
74633;BME280;63139;52.018;8.552;2023-03-14T05:06:46;62328.09;;;-141.90;100.00
74633;BME280;63139;52.018;8.552;2023-03-14T05:09:32;62328.09;;;-141.90;100.00
74633;BME280;63139;52.018;8.552;2023-03-14T05:12:22;62328.09;;;-141.90;100.00
74633;BME280;63139;52.018;8.552;2023-03-14T05:14:56;62328.09;;;-141.90;100.00
74633;BME280;63139;52.018;8.552;2023-03-14T05:17:42;62328.09;;;-141.90;100.00
74633;BME280;63139;52.018;8.552;2023-03-14T05:20:30;62328.09;;;-141.90;100.00
74633;BME280;63139;52.018;8.552;2023-03-14T05:23:16;62328.09;;;-141.90;100.00
74633;BME280;63139;52.018;8.552;2023-03-14T05:26:05;62328.09;;;-141.90;100.00
74633;BME280;63139;52.018;8.552;2023-03-14T05:28:58;62328.09;;;-141.90;100.00
74633;BME280;63139;52.018;8.552;2023-03-14T05:31:58;62328.09;;;-141.90;100.00
74633;BME280;63139;52.018;8.552;2023-03-14T05:34:38;62328.09;;;-141.90;100.00
74633;BME280;63139;52.018;8.552;2023-03-14T05:37:34;62328.09;;;-141.90;100.00
74633;BME280;63139;52.018;8.552;2023-03-14T05:40:20;62328.09;;;-141.90;100.00
74633;BME280;63139;52.018;8.552;2023-03-14T05:43:17;62328.09;;;-141.90;100.00
74633;BME280;63139;52.018;8.552;2023-03-14T05:46:14;62328.09;;;-141.90;100.00
74633;BME280;63139;52.018;8.552;2023-03-14T05:48:58;62328.09;;;-141.90;100.00
74633;BME280;63139;52.018;8.552;2023-03-14T05:51:46;62328.09;;;-141.90;100.00
74633;BME280;63139;52.018;8.552;2023-03-14T05:54:38;62328.09;;;-141.90;100.00
74633;BME280;63139;52.018;8.552;2023-03-14T05:57:27;62328.09;;;-141.90;100.00
74633;BME280;63139;52.018;8.552;2023-03-14T06:00:32;62328.09;;;-141.90;100.00
74633;BME280;63139;52.018;8.552;2023-03-14T06:03:17;62328.09;;;-141.90;100.00
74633;BME280;63139;52.018;8.552;2023-03-14T06:05:49;62328.09;;;-141.90;100.00
74633;BME280;63139;52.018;8.552;2023-03-14T06:08:18;62328.09;;;-141.90;100.00
74633;BME280;63139;52.018;8.552;2023-03-14T06:10:48;62328.09;;;-141.90;100.00
74633;BME280;63139;52.018;8.552;2023-03-14T06:13:16;62328.09;;;-141.90;100.00
74633;BME280;63139;52.018;8.552;2023-03-14T06:15:43;62328.09;;;-141.90;100.00
74633;BME280;63139;52.018;8.552;2023-03-14T06:18:11;62328.09;;;-141.90;100.00
74633;BME280;63139;52.018;8.552;2023-03-14T06:20:41;62328.09;;;-141.90;100.00
74633;BME280;63139;52.018;8.552;2023-03-14T06:23:13;62328.09;;;-141.90;100.00
74633;BME280;63139;52.018;8.552;2023-03-14T06:25:41;62328.09;;;-141.90;100.00
74633;BME280;63139;52.018;8.552;2023-03-14T06:28:10;62328.09;;;-141.90;100.00
74633;BME280;63139;52.018;8.552;2023-03-14T06:30:38;62328.09;;;-141.90;100.00
74633;BME280;63139;52.018;8.552;2023-03-14T06:33:08;62328.09;;;-141.90;100.00
74633;BME280;63139;52.018;8.552;2023-03-14T06:35:36;62328.09;;;-141.90;100.00
74633;BME280;63139;52.018;8.552;2023-03-14T06:38:04;62328.09;;;-141.90;100.00
74633;BME280;63139;52.018;8.552;2023-03-14T06:40:32;62328.09;;;-141.90;100.00
74633;BME280;63139;52.018;8.552;2023-03-14T06:43:18;62328.09;;;-141.90;100.00
74633;BME280;63139;52.018;8.552;2023-03-14T06:45:46;62328.09;;;-141.90;100.00
74633;BME280;63139;52.018;8.552;2023-03-14T06:48:14;62328.09;;;-141.90;100.00
74633;BME280;63139;52.018;8.552;2023-03-14T06:50:48;62328.09;;;-141.90;100.00
74633;BME280;63139;52.018;8.552;2023-03-14T06:53:16;62328.09;;;-141.90;100.00
74633;BME280;63139;52.018;8.552;2023-03-14T06:55:44;62328.09;;;-141.90;100.00
74633;BME280;63139;52.018;8.552;2023-03-14T06:58:14;62328.09;;;-141.90;100.00
74633;BME280;63139;52.018;8.552;2023-03-14T07:00:45;62328.09;;;-141.90;100.00
74633;BME280;63139;52.018;8.552;2023-03-14T07:03:19;62328.09;;;-141.90;100.00
74633;BME280;63139;52.018;8.552;2023-03-14T07:05:49;62328.09;;;-141.90;100.00
74633;BME280;63139;52.018;8.552;2023-03-14T07:08:16;62328.09;;;-141.90;100.00
74633;BME280;63139;52.018;8.552;2023-03-14T07:10:44;62328.09;;;-141.90;100.00
74633;BME280;63139;52.018;8.552;2023-03-14T07:13:12;62328.09;;;-141.90;100.00
74633;BME280;63139;52.018;8.552;2023-03-14T07:15:57;62328.09;;;-141.90;100.00
74633;BME280;63139;52.018;8.552;2023-03-14T07:18:25;62328.09;;;-141.90;100.00
74633;BME280;63139;52.018;8.552;2023-03-14T07:20:54;62328.09;;;-141.90;100.00
74633;BME280;63139;52.018;8.552;2023-03-14T07:23:23;62328.09;;;-141.90;100.00
74633;BME280;63139;52.018;8.552;2023-03-14T07:25:52;62328.09;;;-141.90;100.00
74633;BME280;63139;52.018;8.552;2023-03-14T07:28:23;62328.09;;;-141.90;100.00
74633;BME280;63139;52.018;8.552;2023-03-14T07:30:59;62328.09;;;-141.90;100.00
74633;BME280;63139;52.018;8.552;2023-03-14T07:33:30;62328.09;;;-141.90;100.00
74633;BME280;63139;52.018;8.552;2023-03-14T07:35:59;62328.09;;;-141.90;100.00
74633;BME280;63139;52.018;8.552;2023-03-14T07:38:27;62328.09;;;-141.90;100.00
74633;BME280;63139;52.018;8.552;2023-03-14T07:41:14;62328.09;;;-141.90;100.00
74633;BME280;63139;52.018;8.552;2023-03-14T07:44:08;62328.09;;;-141.90;100.00
74633;BME280;63139;52.018;8.552;2023-03-14T07:46:37;62328.09;;;-141.90;100.00
74633;BME280;63139;52.018;8.552;2023-03-14T07:49:05;62328.09;;;-141.90;100.00
74633;BME280;63139;52.018;8.552;2023-03-14T07:51:33;62328.09;;;-141.90;100.00
74633;BME280;63139;52.018;8.552;2023-03-14T07:54:01;62328.09;;;-141.90;100.00
74633;BME280;63139;52.018;8.552;2023-03-14T07:56:29;62328.09;;;-141.90;100.00
74633;BME280;63139;52.018;8.552;2023-03-14T07:58:56;62328.09;;;-141.90;100.00
74633;BME280;63139;52.018;8.552;2023-03-14T08:01:24;62328.09;;;-141.90;100.00
74633;BME280;63139;52.018;8.552;2023-03-14T08:03:54;62328.09;;;-141.90;100.00
74633;BME280;63139;52.018;8.552;2023-03-14T08:06:21;62328.09;;;-141.90;100.00
74633;BME280;63139;52.018;8.552;2023-03-14T08:08:49;62328.09;;;-141.90;100.00
74633;BME280;63139;52.018;8.552;2023-03-14T08:11:17;62328.09;;;-141.90;100.00
74633;BME280;63139;52.018;8.552;2023-03-14T08:13:45;62328.09;;;-141.90;100.00
74633;BME280;63139;52.018;8.552;2023-03-14T08:16:16;62328.09;;;-141.90;100.00
74633;BME280;63139;52.018;8.552;2023-03-14T08:18:44;62328.09;;;-141.90;100.00
74633;BME280;63139;52.018;8.552;2023-03-14T08:21:13;62328.09;;;-141.90;100.00
74633;BME280;63139;52.018;8.552;2023-03-14T08:23:41;62328.09;;;-141.90;100.00
74633;BME280;63139;52.018;8.552;2023-03-14T08:26:09;62328.09;;;-141.90;100.00
74633;BME280;63139;52.018;8.552;2023-03-14T08:28:37;62328.09;;;-141.90;100.00
74633;BME280;63139;52.018;8.552;2023-03-14T08:31:05;62328.09;;;-141.90;100.00
74633;BME280;63139;52.018;8.552;2023-03-14T08:33:33;62328.09;;;-141.90;100.00
74633;BME280;63139;52.018;8.552;2023-03-14T08:36:01;62328.09;;;-141.90;100.00
74633;BME280;63139;52.018;8.552;2023-03-14T08:38:30;62328.09;;;-141.90;100.00
74633;BME280;63139;52.018;8.552;2023-03-14T08:40:59;62328.09;;;-141.90;100.00
74633;BME280;63139;52.018;8.552;2023-03-14T08:43:27;62328.09;;;-141.90;100.00
74633;BME280;63139;52.018;8.552;2023-03-14T08:45:57;62328.09;;;-141.90;100.00
74633;BME280;63139;52.018;8.552;2023-03-14T08:48:25;62328.09;;;-141.90;100.00
74633;BME280;63139;52.018;8.552;2023-03-14T08:50:53;62328.09;;;-141.90;100.00
74633;BME280;63139;52.018;8.552;2023-03-14T08:53:21;62328.09;;;-141.90;100.00
74633;BME280;63139;52.018;8.552;2023-03-14T08:55:53;62328.09;;;-141.90;100.00
74633;BME280;63139;52.018;8.552;2023-03-14T08:58:21;62328.09;;;-141.90;100.00
74633;BME280;63139;52.018;8.552;2023-03-14T09:00:50;62328.09;;;-141.90;100.00
74633;BME280;63139;52.018;8.552;2023-03-14T09:03:18;62328.09;;;-141.90;100.00
74633;BME280;63139;52.018;8.552;2023-03-14T09:05:46;62328.09;;;-141.90;100.00
74633;BME280;63139;52.018;8.552;2023-03-14T09:08:13;62328.09;;;-141.90;100.00
74633;BME280;63139;52.018;8.552;2023-03-14T09:10:41;62328.09;;;-141.90;100.00
74633;BME280;63139;52.018;8.552;2023-03-14T09:13:10;62328.09;;;-141.90;100.00
74633;BME280;63139;52.018;8.552;2023-03-14T09:15:38;62328.09;;;-141.90;100.00
74633;BME280;63139;52.018;8.552;2023-03-14T09:18:08;62328.09;;;-141.90;100.00
74633;BME280;63139;52.018;8.552;2023-03-14T09:20:36;62328.09;;;-141.90;100.00
74633;BME280;63139;52.018;8.552;2023-03-14T09:23:04;62328.09;;;-141.90;100.00
74633;BME280;63139;52.018;8.552;2023-03-14T09:25:32;62328.09;;;-141.90;100.00
74633;BME280;63139;52.018;8.552;2023-03-14T09:27:59;62328.09;;;-141.90;100.00
74633;BME280;63139;52.018;8.552;2023-03-14T09:30:29;62328.09;;;-141.90;100.00
74633;BME280;63139;52.018;8.552;2023-03-14T09:32:56;62328.09;;;-141.90;100.00
74633;BME280;63139;52.018;8.552;2023-03-14T09:35:25;62328.09;;;-141.90;100.00
74633;BME280;63139;52.018;8.552;2023-03-14T09:37:53;62328.09;;;-141.90;100.00
74633;BME280;63139;52.018;8.552;2023-03-14T09:40:21;62328.09;;;-141.90;100.00
74633;BME280;63139;52.018;8.552;2023-03-14T09:42:51;62328.09;;;-141.90;100.00
74633;BME280;63139;52.018;8.552;2023-03-14T09:45:24;62328.09;;;-141.90;100.00
74633;BME280;63139;52.018;8.552;2023-03-14T09:47:55;62328.09;;;-141.90;100.00
74633;BME280;63139;52.018;8.552;2023-03-14T09:50:26;62328.09;;;-141.90;100.00
74633;BME280;63139;52.018;8.552;2023-03-14T09:53:02;62328.09;;;-141.90;100.00
74633;BME280;63139;52.018;8.552;2023-03-14T09:55:31;62328.09;;;-141.90;100.00
74633;BME280;63139;52.018;8.552;2023-03-14T09:58:04;62328.09;;;-141.90;100.00
74633;BME280;63139;52.018;8.552;2023-03-14T10:00:37;62328.09;;;-141.90;100.00
74633;BME280;63139;52.018;8.552;2023-03-14T10:03:23;62328.09;;;-141.90;100.00
74633;BME280;63139;52.018;8.552;2023-03-14T10:05:53;62328.09;;;-141.90;100.00
74633;BME280;63139;52.018;8.552;2023-03-14T10:08:22;62328.09;;;-141.90;100.00
74633;BME280;63139;52.018;8.552;2023-03-14T10:10:50;62328.09;;;-141.90;100.00
74633;BME280;63139;52.018;8.552;2023-03-14T10:13:20;62328.09;;;-141.90;100.00
74633;BME280;63139;52.018;8.552;2023-03-14T10:15:53;62328.09;;;-141.90;100.00
74633;BME280;63139;52.018;8.552;2023-03-14T10:18:23;62328.09;;;-141.90;100.00
74633;BME280;63139;52.018;8.552;2023-03-14T10:21:03;62328.09;;;-141.90;100.00
74633;BME280;63139;52.018;8.552;2023-03-14T10:23:33;62328.09;;;-141.90;100.00
74633;BME280;63139;52.018;8.552;2023-03-14T10:26:07;62328.09;;;-141.90;100.00
74633;BME280;63139;52.018;8.552;2023-03-14T10:28:39;62328.09;;;-141.90;100.00
74633;BME280;63139;52.018;8.552;2023-03-14T10:31:10;62328.09;;;-141.90;100.00
74633;BME280;63139;52.018;8.552;2023-03-14T10:33:39;62328.09;;;-141.90;100.00
74633;BME280;63139;52.018;8.552;2023-03-14T10:36:18;62328.09;;;-141.90;100.00
74633;BME280;63139;52.018;8.552;2023-03-14T10:38:47;62328.09;;;-141.90;100.00
74633;BME280;63139;52.018;8.552;2023-03-14T10:41:17;62328.09;;;-141.90;100.00
74633;BME280;63139;52.018;8.552;2023-03-14T10:43:49;62328.09;;;-141.90;100.00
74633;BME280;63139;52.018;8.552;2023-03-14T10:46:20;62328.09;;;-141.90;100.00
74633;BME280;63139;52.018;8.552;2023-03-14T10:49:16;62328.09;;;-141.90;100.00
74633;BME280;63139;52.018;8.552;2023-03-14T10:51:50;62328.09;;;-141.90;100.00
74633;BME280;63139;52.018;8.552;2023-03-14T10:54:20;62328.09;;;-141.90;100.00
74633;BME280;63139;52.018;8.552;2023-03-14T10:56:56;62328.09;;;-141.90;100.00
74633;BME280;63139;52.018;8.552;2023-03-14T10:59:24;62328.09;;;-141.90;100.00
74633;BME280;63139;52.018;8.552;2023-03-14T11:01:58;62328.09;;;-141.90;100.00
74633;BME280;63139;52.018;8.552;2023-03-14T11:04:43;62328.09;;;-141.90;100.00
74633;BME280;63139;52.018;8.552;2023-03-14T11:07:19;62328.09;;;-141.90;100.00
74633;BME280;63139;52.018;8.552;2023-03-14T11:09:53;62328.09;;;-141.90;100.00
74633;BME280;63139;52.018;8.552;2023-03-14T11:12:36;62328.09;;;-141.90;100.00
74633;BME280;63139;52.018;8.552;2023-03-14T11:15:13;62328.09;;;-141.90;100.00
74633;BME280;63139;52.018;8.552;2023-03-14T11:17:50;98214.28;;;7.96;85.53
74633;BME280;63139;52.018;8.552;2023-03-14T11:20:31;62328.09;;;-141.90;100.00
74633;BME280;63139;52.018;8.552;2023-03-14T11:23:06;62328.09;;;-141.90;100.00
74633;BME280;63139;52.018;8.552;2023-03-14T11:25:40;62328.09;;;-141.90;100.00
74633;BME280;63139;52.018;8.552;2023-03-14T11:28:18;62328.09;;;-141.90;100.00
74633;BME280;63139;52.018;8.552;2023-03-14T11:30:51;62328.09;;;-141.90;100.00
74633;BME280;63139;52.018;8.552;2023-03-14T11:33:22;62328.09;;;-141.90;100.00
74633;BME280;63139;52.018;8.552;2023-03-14T11:35:58;62328.09;;;-141.90;100.00
74633;BME280;63139;52.018;8.552;2023-03-14T11:38:34;62328.09;;;-141.90;100.00
74633;BME280;63139;52.018;8.552;2023-03-14T11:41:10;62328.09;;;-141.90;100.00
74633;BME280;63139;52.018;8.552;2023-03-14T11:43:41;62328.09;;;-141.90;100.00
74633;BME280;63139;52.018;8.552;2023-03-14T11:46:13;62328.09;;;-141.90;100.00
74633;BME280;63139;52.018;8.552;2023-03-14T11:48:45;62328.09;;;-141.90;100.00
74633;BME280;63139;52.018;8.552;2023-03-14T11:51:23;98410.00;;;5.71;83.33
74633;BME280;63139;52.018;8.552;2023-03-14T11:53:59;98416.44;;;5.47;83.40
74633;BME280;63139;52.018;8.552;2023-03-14T11:56:33;98419.63;;;5.64;82.75
74633;BME280;63139;52.018;8.552;2023-03-14T11:59:05;98427.63;;;5.77;82.29
74633;BME280;63139;52.018;8.552;2023-03-14T12:01:47;98451.06;;;6.00;81.50
74633;BME280;63139;52.018;8.552;2023-03-14T12:04:24;98463.81;;;6.24;80.55
74633;BME280;63139;52.018;8.552;2023-03-14T12:07:03;98491.03;;;6.17;78.07
74633;BME280;63139;52.018;8.552;2023-03-14T12:09:35;98493.38;;;6.05;79.16
74633;BME280;63139;52.018;8.552;2023-03-14T12:12:04;98495.34;;;6.03;79.69
74633;BME280;63139;52.018;8.552;2023-03-14T12:14:34;98509.19;;;6.12;78.79
74633;BME280;63139;52.018;8.552;2023-03-14T12:17:06;98528.50;;;6.53;77.96
74633;BME280;63139;52.018;8.552;2023-03-14T12:19:36;98546.94;;;6.81;75.21
74633;BME280;63139;52.018;8.552;2023-03-14T12:22:21;98549.72;;;6.73;73.59
74633;BME280;63139;52.018;8.552;2023-03-14T12:24:51;98556.78;;;7.00;74.36
74633;BME280;63139;52.018;8.552;2023-03-14T12:27:47;98570.50;;;6.96;71.40
74633;BME280;63139;52.018;8.552;2023-03-14T12:30:23;98572.19;;;7.04;73.26
74633;BME280;63139;52.018;8.552;2023-03-14T12:36:01;98594.50;;;7.14;69.93
74633;BME280;63139;52.018;8.552;2023-03-14T12:39:09;98595.19;;;7.29;70.57
74633;BME280;63139;52.018;8.552;2023-03-14T12:41:42;98596.63;;;7.73;69.40
74633;BME280;63139;52.018;8.552;2023-03-14T12:44:42;98598.97;;;8.09;69.54
74633;BME280;63139;52.018;8.552;2023-03-14T12:50:31;98601.44;;;8.10;66.64
74633;BME280;63139;52.018;8.552;2023-03-14T12:53:33;98603.28;;;8.23;67.08
74633;BME280;63139;52.018;8.552;2023-03-14T12:56:19;98607.28;;;7.99;65.83
74633;BME280;63139;52.018;8.552;2023-03-14T12:58:58;98613.59;;;8.05;66.82
74633;BME280;63139;52.018;8.552;2023-03-14T13:01:29;98614.59;;;8.04;67.81
74633;BME280;63139;52.018;8.552;2023-03-14T13:03:57;98622.13;;;8.13;69.31
74633;BME280;63139;52.018;8.552;2023-03-14T13:06:48;98625.25;;;8.37;67.79
74633;BME280;63139;52.018;8.552;2023-03-14T13:09:49;98633.81;;;8.52;68.38